createdAt,value
2019-05-19T00:02:27.980Z,10.30
2019-05-19T00:04:56.426Z,10.30
2019-05-19T00:07:24.912Z,10.30
2019-05-19T00:09:54.869Z,10.30
2019-05-19T00:12:23.378Z,10.30
2019-05-19T00:14:51.805Z,10.30
2019-05-19T00:17:20.247Z,10.30
2019-05-19T00:19:48.665Z,10.20
2019-05-19T00:22:17.114Z,10.20
2019-05-19T00:24:45.603Z,10.20
2019-05-19T00:27:14.066Z,10.10
2019-05-19T00:29:42.498Z,10.10
2019-05-19T00:32:10.931Z,10.10
2019-05-19T00:34:39.369Z,10.00
2019-05-19T00:37:07.799Z,10.00
2019-05-19T00:39:36.250Z,10.00
2019-05-19T00:42:04.831Z,9.90
2019-05-19T00:44:33.247Z,9.90
2019-05-19T00:47:01.757Z,9.90
2019-05-19T00:49:41.007Z,9.80
2019-05-19T00:52:00.349Z,9.80
2019-05-19T00:54:28.758Z,9.80
2019-05-19T00:56:58.274Z,9.80
2019-05-19T00:59:27.559Z,9.80
2019-05-19T01:01:56.179Z,9.80
2019-05-19T01:04:24.670Z,9.80
2019-05-19T01:06:53.111Z,9.80
2019-05-19T01:09:21.535Z,9.80
2019-05-19T01:11:49.969Z,9.80
2019-05-19T01:14:18.388Z,9.80
2019-05-19T01:16:46.834Z,9.80
2019-05-19T01:19:16.800Z,9.80
2019-05-19T01:21:45.758Z,9.80
2019-05-19T01:24:14.196Z,9.80
2019-05-19T01:26:42.627Z,9.80
2019-05-19T01:29:11.067Z,9.80
2019-05-19T01:31:39.483Z,9.80
2019-05-19T01:34:09.691Z,9.80
2019-05-19T01:36:38.107Z,9.70
2019-05-19T01:39:06.750Z,9.70
2019-05-19T01:41:35.195Z,9.70
2019-05-19T01:44:03.867Z,9.70
2019-05-19T01:46:32.285Z,9.60
2019-05-19T01:49:00.731Z,9.60
2019-05-19T01:51:29.147Z,9.60
2019-05-19T01:53:57.586Z,9.50
2019-05-19T01:56:26.081Z,9.50
2019-05-19T01:58:54.522Z,9.40
2019-05-19T02:01:22.942Z,9.30
2019-05-19T02:03:51.535Z,9.30
2019-05-19T02:06:19.954Z,9.30
2019-05-19T02:08:48.395Z,9.10
2019-05-19T02:11:16.839Z,9.10
2019-05-19T02:13:45.343Z,9.00
2019-05-19T02:16:13.828Z,8.90
2019-05-19T02:18:42.253Z,8.80
2019-05-19T02:21:10.747Z,8.80
2019-05-19T02:23:39.197Z,8.70
2019-05-19T02:26:07.695Z,8.70
2019-05-19T02:28:36.146Z,8.60
2019-05-19T02:31:04.578Z,8.60
2019-05-19T02:33:35.666Z,8.60
2019-05-19T02:36:03.184Z,8.50
2019-05-19T02:38:31.615Z,8.50
2019-05-19T02:41:01.093Z,8.40
2019-05-19T02:43:29.955Z,8.40
2019-05-19T02:46:00.569Z,8.30
2019-05-19T02:48:29.844Z,8.30
2019-05-19T02:51:01.014Z,8.20
2019-05-19T02:53:30.761Z,8.20
2019-05-19T02:56:00.738Z,8.10
2019-05-19T02:58:30.114Z,8.10
2019-05-19T03:00:58.614Z,8.00
2019-05-19T03:03:27.047Z,8.00
2019-05-19T03:05:55.612Z,7.90
2019-05-19T03:08:24.039Z,7.90
2019-05-19T03:10:52.496Z,7.90
2019-05-19T03:13:20.921Z,7.90
2019-05-19T03:15:49.506Z,7.90
2019-05-19T03:18:17.929Z,8.00
2019-05-19T03:20:46.380Z,8.00
2019-05-19T03:23:14.800Z,7.90
2019-05-19T03:25:44.177Z,7.90
2019-05-19T03:28:12.967Z,7.90
2019-05-19T03:30:43.065Z,7.80
2019-05-19T03:33:13.296Z,7.80
2019-05-19T03:35:41.740Z,7.80
2019-05-19T03:38:10.196Z,7.80
2019-05-19T03:40:38.641Z,7.80
2019-05-19T03:43:07.067Z,7.80
2019-05-19T03:45:35.499Z,7.70
2019-05-19T03:48:04.074Z,7.70
2019-05-19T03:50:32.491Z,7.70
2019-05-19T03:53:00.932Z,7.60
2019-05-19T03:55:29.344Z,7.60
2019-05-19T03:57:57.786Z,7.60
2019-05-19T04:00:26.320Z,7.70
2019-05-19T04:02:54.760Z,7.70
2019-05-19T04:05:23.178Z,7.80
2019-05-19T04:07:51.635Z,7.80
2019-05-19T04:10:20.303Z,7.80
2019-05-19T04:12:48.748Z,7.90
2019-05-19T04:15:17.407Z,7.90
2019-05-19T04:17:45.836Z,7.90
2019-05-19T04:20:14.541Z,7.90
2019-05-19T04:22:43.003Z,7.90
2019-05-19T04:25:11.601Z,7.90
2019-05-19T04:27:40.052Z,7.90
2019-05-19T04:30:09.829Z,7.90
2019-05-19T04:32:38.256Z,8.00
2019-05-19T04:35:07.148Z,8.10
2019-05-19T04:37:36.330Z,8.10
2019-05-19T04:40:06.798Z,8.20
2019-05-19T04:42:35.238Z,8.20
2019-05-19T04:45:03.857Z,8.30
2019-05-19T04:47:32.264Z,8.30
2019-05-19T04:50:00.714Z,8.40
2019-05-19T04:52:29.318Z,8.40
2019-05-19T04:54:57.772Z,8.40
2019-05-19T04:57:26.196Z,8.50
2019-05-19T04:59:54.640Z,8.50
2019-05-19T05:02:23.077Z,8.50
2019-05-19T05:04:51.523Z,8.60
2019-05-19T05:07:21.498Z,8.70
2019-05-19T05:09:49.946Z,8.80
2019-05-19T05:12:19.912Z,8.80
2019-05-19T05:14:48.371Z,8.90
2019-05-19T05:17:16.797Z,9.00
2019-05-19T05:19:47.956Z,9.10
2019-05-19T05:22:22.212Z,9.20
2019-05-19T05:24:46.536Z,9.30
2019-05-19T05:27:14.968Z,9.40
2019-05-19T05:29:43.398Z,9.40
2019-05-19T05:32:11.835Z,9.50
2019-05-19T05:34:40.267Z,9.60
2019-05-19T05:37:08.720Z,9.80
2019-05-19T05:39:37.150Z,10.00
2019-05-19T05:42:05.612Z,10.30
2019-05-19T05:44:34.121Z,10.50
2019-05-19T05:47:02.571Z,10.80
2019-05-19T05:49:30.998Z,11.00
2019-05-19T05:51:59.443Z,11.20
2019-05-19T05:54:27.897Z,11.40
2019-05-19T05:56:58.874Z,11.70
2019-05-19T05:59:28.038Z,12.00
2019-05-19T06:01:56.491Z,12.40
2019-05-19T06:04:24.931Z,12.70
2019-05-19T06:06:53.500Z,13.10
2019-05-19T06:09:21.928Z,13.30
2019-05-19T06:11:50.399Z,13.60
2019-05-19T06:14:18.825Z,13.80
2019-05-19T06:16:47.343Z,14.10
2019-05-19T06:19:15.828Z,14.20
2019-05-19T06:21:44.333Z,14.10
2019-05-19T06:24:12.755Z,14.20
2019-05-19T06:26:41.207Z,14.30
2019-05-19T06:29:09.653Z,14.40
2019-05-19T06:31:38.106Z,14.30
2019-05-19T06:34:06.594Z,14.30
2019-05-19T06:36:35.020Z,14.30
2019-05-19T06:39:06.013Z,14.20
2019-05-19T06:41:34.605Z,14.10
2019-05-19T06:44:03.603Z,14.00
2019-05-19T06:46:32.660Z,14.00
2019-05-19T06:49:02.651Z,14.10
2019-05-19T06:51:31.083Z,14.30
2019-05-19T06:53:59.538Z,14.30
2019-05-19T06:56:28.034Z,14.30
2019-05-19T06:58:56.474Z,14.30
2019-05-19T07:01:24.895Z,14.40
2019-05-19T07:03:53.518Z,14.30
2019-05-19T07:06:21.946Z,14.20
2019-05-19T07:08:50.395Z,14.30
2019-05-19T07:11:18.893Z,14.50
2019-05-19T07:13:47.411Z,14.60
2019-05-19T07:16:16.879Z,14.70
2019-05-19T07:18:45.402Z,14.80
2019-05-19T07:21:13.878Z,15.00
2019-05-19T07:23:42.333Z,15.20
2019-05-19T07:26:10.751Z,15.30
2019-05-19T07:28:39.203Z,15.40
2019-05-19T07:31:07.638Z,15.50
2019-05-19T07:33:36.075Z,15.80
2019-05-19T07:36:04.583Z,16.00
2019-05-19T07:38:33.101Z,16.10
2019-05-19T07:41:01.542Z,16.20
2019-05-19T07:43:30.073Z,16.20
2019-05-19T07:46:00.128Z,16.30
2019-05-19T07:48:28.588Z,16.40
2019-05-19T07:50:57.037Z,16.60
2019-05-19T07:53:25.590Z,17.00
2019-05-19T07:55:54.054Z,17.00
2019-05-19T07:58:22.465Z,16.80
2019-05-19T08:00:51.095Z,16.80
2019-05-19T08:03:19.584Z,16.80
2019-05-19T08:05:48.119Z,16.90
2019-05-19T08:08:18.192Z,16.70
2019-05-19T08:10:46.645Z,17.00
2019-05-19T08:13:15.077Z,17.20
2019-05-19T08:15:43.525Z,17.70
2019-05-19T08:18:11.966Z,18.00
2019-05-19T08:20:40.408Z,18.00
2019-05-19T08:23:08.882Z,18.50
2019-05-19T08:25:37.354Z,18.40
2019-05-19T08:28:08.830Z,18.70
2019-05-19T08:30:36.221Z,19.20
2019-05-19T08:33:04.732Z,19.60
2019-05-19T08:35:33.445Z,19.50
2019-05-19T08:38:02.062Z,19.60
2019-05-19T08:40:30.578Z,19.50
2019-05-19T08:42:59.007Z,20.00
2019-05-19T08:45:27.521Z,20.10
2019-05-19T08:47:56.025Z,19.80
2019-05-19T08:50:24.483Z,19.80
2019-05-19T08:52:52.931Z,19.50
2019-05-19T08:55:21.470Z,19.30
2019-05-19T08:57:49.882Z,19.70
2019-05-19T09:00:18.379Z,19.90
2019-05-19T09:02:46.831Z,20.00
2019-05-19T09:05:15.319Z,20.00
2019-05-19T09:07:43.786Z,20.40
2019-05-19T09:10:12.634Z,20.30
2019-05-19T09:12:41.116Z,20.20
2019-05-19T09:15:09.979Z,20.70
2019-05-19T09:17:38.505Z,20.90
2019-05-19T09:20:07.065Z,21.90
2019-05-19T09:22:35.533Z,21.90
2019-05-19T09:25:08.467Z,22.20
2019-05-19T09:27:36.905Z,22.00
2019-05-19T09:30:10.426Z,22.40
2019-05-19T09:32:39.022Z,22.60
2019-05-19T09:35:07.679Z,22.70
2019-05-19T09:37:36.206Z,22.30
2019-05-19T09:40:07.526Z,22.10
2019-05-19T09:42:36.056Z,22.30
2019-05-19T09:45:07.396Z,22.60
2019-05-19T09:47:35.954Z,21.90
2019-05-19T09:50:05.758Z,22.30
2019-05-19T09:52:34.174Z,22.30
2019-05-19T09:55:02.778Z,22.20
2019-05-19T09:57:31.184Z,22.20
2019-05-19T09:59:59.671Z,22.60
2019-05-19T10:02:28.135Z,22.50
2019-05-19T10:04:56.575Z,21.50
2019-05-19T10:07:25.083Z,21.30
2019-05-19T10:09:58.622Z,21.20
2019-05-19T10:12:27.246Z,22.30
2019-05-19T10:14:55.755Z,23.20
2019-05-19T10:17:24.268Z,22.30
2019-05-19T10:19:52.793Z,21.40
2019-05-19T10:22:21.272Z,21.20
2019-05-19T10:24:59.646Z,21.20
2019-05-19T10:27:21.754Z,21.00
2019-05-19T10:29:50.458Z,20.90
2019-05-19T10:32:18.980Z,21.70
2019-05-19T10:34:47.561Z,21.40
2019-05-19T10:37:16.007Z,21.50
2019-05-19T10:39:44.508Z,21.00
2019-05-19T10:42:13.041Z,20.90
2019-05-19T10:44:41.475Z,20.60
2019-05-19T10:47:09.905Z,20.50
2019-05-19T10:49:38.331Z,20.30
2019-05-19T10:52:06.767Z,20.60
2019-05-19T10:54:35.188Z,20.70
2019-05-19T10:57:03.862Z,21.30
2019-05-19T10:59:32.304Z,21.90
2019-05-19T11:02:00.846Z,22.10
2019-05-19T11:04:29.412Z,22.40
2019-05-19T11:06:57.872Z,22.00
2019-05-19T11:09:26.317Z,22.60
2019-05-19T11:11:54.828Z,23.70
2019-05-19T11:14:23.271Z,23.50
2019-05-19T11:16:51.795Z,23.90
2019-05-19T11:19:20.284Z,24.40
2019-05-19T11:21:48.714Z,24.50
2019-05-19T11:24:17.139Z,23.30
2019-05-19T11:26:45.647Z,22.10
2019-05-19T11:29:14.193Z,21.50
2019-05-19T11:31:42.636Z,21.00
2019-05-19T11:34:11.055Z,20.90
2019-05-19T11:36:39.512Z,20.90
2019-05-19T11:39:08.583Z,21.90
2019-05-19T11:41:37.015Z,23.10
2019-05-19T11:44:05.594Z,23.50
2019-05-19T11:46:34.136Z,23.10
2019-05-19T11:49:02.709Z,23.30
2019-05-19T11:51:31.150Z,22.80
2019-05-19T11:53:59.584Z,21.90
2019-05-19T11:56:28.068Z,21.70
2019-05-19T11:58:56.522Z,21.60
2019-05-19T12:01:25.018Z,21.40
2019-05-19T12:03:55.447Z,21.30
2019-05-19T12:06:37.984Z,21.40
2019-05-19T12:08:53.955Z,21.20
2019-05-19T12:11:22.373Z,21.50
2019-05-19T12:13:50.818Z,22.40
2019-05-19T12:16:19.251Z,23.30
2019-05-19T12:18:47.799Z,24.20
2019-05-19T12:21:16.250Z,24.00
2019-05-19T12:23:44.729Z,24.10
2019-05-19T12:26:22.603Z,24.30
2019-05-19T12:28:43.326Z,23.80
2019-05-19T12:31:11.791Z,23.20
2019-05-19T12:33:51.464Z,22.50
2019-05-19T12:36:10.400Z,21.90
2019-05-19T12:38:38.851Z,21.70
2019-05-19T12:41:07.278Z,21.20
2019-05-19T12:43:35.724Z,21.20
2019-05-19T12:46:04.341Z,21.10
2019-05-19T12:48:33.031Z,21.00
2019-05-19T12:51:01.690Z,21.10
2019-05-19T12:53:31.792Z,21.20
2019-05-19T12:56:00.239Z,21.00
2019-05-19T12:58:28.655Z,21.00
2019-05-19T13:00:57.119Z,21.20
2019-05-19T13:03:25.558Z,21.20
2019-05-19T13:05:53.991Z,21.10
2019-05-19T13:08:22.419Z,21.00
2019-05-19T13:10:51.450Z,20.80
2019-05-19T13:13:19.882Z,21.00
2019-05-19T13:15:48.334Z,21.10
2019-05-19T13:18:16.769Z,21.00
2019-05-19T13:20:45.282Z,20.80
2019-05-19T13:23:13.702Z,20.70
2019-05-19T13:25:42.144Z,20.60
2019-05-19T13:28:10.558Z,20.50
2019-05-19T13:30:39.021Z,20.30
2019-05-19T13:33:07.507Z,20.00
2019-05-19T13:35:35.963Z,19.60
2019-05-19T13:38:04.464Z,19.10
2019-05-19T13:40:32.923Z,18.70
2019-05-19T13:43:01.498Z,18.30
2019-05-19T13:45:29.940Z,17.90
2019-05-19T13:47:58.382Z,18.00
2019-05-19T13:50:26.951Z,17.90
2019-05-19T13:52:55.415Z,17.80
2019-05-19T13:55:23.948Z,17.80
2019-05-19T13:57:52.508Z,17.60
2019-05-19T14:00:21.379Z,17.30
2019-05-19T14:02:49.821Z,17.20
2019-05-19T14:05:19.788Z,17.40
2019-05-19T14:07:48.307Z,17.50
2019-05-19T14:10:18.445Z,17.70
2019-05-19T14:12:47.036Z,17.70
2019-05-19T14:15:17.007Z,17.70
2019-05-19T14:17:45.460Z,17.80
2019-05-19T14:20:14.353Z,17.80
2019-05-19T14:22:42.801Z,17.70
2019-05-19T14:25:11.459Z,17.80
2019-05-19T14:27:39.987Z,17.70
2019-05-19T14:30:09.214Z,17.70
2019-05-19T14:32:37.763Z,17.70
2019-05-19T14:35:07.013Z,17.70
2019-05-19T14:37:35.522Z,18.00
2019-05-19T14:40:05.738Z,17.90
2019-05-19T14:42:44.782Z,18.10
2019-05-19T14:45:14.093Z,18.60
2019-05-19T14:47:42.617Z,19.20
2019-05-19T14:50:14.222Z,19.50
2019-05-19T14:52:42.642Z,19.70
2019-05-19T14:55:12.902Z,19.70
2019-05-19T14:57:44.945Z,19.80
2019-05-19T15:00:11.784Z,20.00
2019-05-19T15:02:40.198Z,20.10
2019-05-19T15:05:09.068Z,20.00
2019-05-19T15:07:37.763Z,19.70
2019-05-19T15:10:06.734Z,19.30
2019-05-19T15:12:35.280Z,18.80
2019-05-19T15:15:05.772Z,18.20
2019-05-19T15:17:34.190Z,17.70
2019-05-19T15:20:02.809Z,17.50
2019-05-19T15:22:31.242Z,17.30
2019-05-19T15:24:59.751Z,17.10
2019-05-19T15:27:28.178Z,16.90
2019-05-19T15:30:10.086Z,16.80
2019-05-19T15:32:26.784Z,16.60
2019-05-19T15:34:55.263Z,16.60
2019-05-19T15:37:23.700Z,16.50
2019-05-19T15:39:53.679Z,16.40
2019-05-19T15:42:22.122Z,16.30
2019-05-19T15:44:52.163Z,16.30
2019-05-19T15:47:20.662Z,16.30
2019-05-19T15:49:49.144Z,16.50
2019-05-19T15:52:17.575Z,16.40
2019-05-19T15:54:46.031Z,16.50
2019-05-19T15:57:14.499Z,16.60
2019-05-19T15:59:42.960Z,16.70
2019-05-19T16:02:11.379Z,16.90
2019-05-19T16:04:39.835Z,17.10
2019-05-19T16:07:08.330Z,17.20
2019-05-19T16:09:36.776Z,17.30
2019-05-19T16:12:05.287Z,17.20
2019-05-19T16:14:33.714Z,17.00
2019-05-19T16:17:02.296Z,16.90
2019-05-19T16:19:30.782Z,16.60
2019-05-19T16:21:59.278Z,16.50
2019-05-19T16:24:27.808Z,16.60
2019-05-19T16:26:56.246Z,16.40
2019-05-19T16:29:24.671Z,16.50
2019-05-19T16:31:54.665Z,16.40
2019-05-19T16:34:23.086Z,16.40
2019-05-19T16:36:53.066Z,16.40
2019-05-19T16:39:21.505Z,16.40
2019-05-19T16:41:49.951Z,16.30
2019-05-19T16:44:18.485Z,16.30
2019-05-19T16:46:46.915Z,16.30
2019-05-19T16:49:16.974Z,16.20
2019-05-19T16:51:45.494Z,16.20
2019-05-19T16:54:15.619Z,16.20
2019-05-19T16:56:44.112Z,16.10
2019-05-19T16:59:12.566Z,16.20
2019-05-19T17:01:42.809Z,16.20
2019-05-19T17:04:11.231Z,16.10
2019-05-19T17:06:39.684Z,16.20
2019-05-19T17:09:08.144Z,16.20
2019-05-19T17:11:36.567Z,16.20
2019-05-19T17:14:05.106Z,16.20
2019-05-19T17:16:33.534Z,16.30
2019-05-19T17:19:03.572Z,16.40
2019-05-19T17:21:32.044Z,16.50
2019-05-19T17:24:00.530Z,16.40
2019-05-19T17:26:29.191Z,16.40
2019-05-19T17:29:00.904Z,16.30
2019-05-19T17:31:27.928Z,16.20
2019-05-19T17:33:56.402Z,16.10
2019-05-19T17:36:27.354Z,16.00
2019-05-19T17:38:55.128Z,15.90
2019-05-19T17:41:23.557Z,15.80
2019-05-19T17:43:52.008Z,15.70
2019-05-19T17:46:20.462Z,15.60
2019-05-19T17:48:48.974Z,15.50
2019-05-19T17:51:17.450Z,15.30
2019-05-19T17:53:47.636Z,15.10
2019-05-19T17:56:16.635Z,15.20
2019-05-19T17:58:46.864Z,15.10
2019-05-19T18:01:15.302Z,14.90
2019-05-19T18:03:44.880Z,14.80
2019-05-19T18:06:13.364Z,14.70
2019-05-19T18:08:41.795Z,14.60
2019-05-19T18:11:11.051Z,14.60
2019-05-19T18:13:39.695Z,14.50
2019-05-19T18:16:10.191Z,14.40
2019-05-19T18:18:38.627Z,14.40
2019-05-19T18:21:07.074Z,14.40
2019-05-19T18:23:35.514Z,14.40
2019-05-19T18:26:07.055Z,14.40
2019-05-19T18:28:34.121Z,14.40
2019-05-19T18:31:02.603Z,14.40
2019-05-19T18:33:31.051Z,14.30
2019-05-19T18:35:59.509Z,14.30
2019-05-19T18:38:28.008Z,14.30
2019-05-19T18:40:56.463Z,14.20
2019-05-19T18:43:25.005Z,14.20
2019-05-19T18:45:53.518Z,14.10
2019-05-19T18:48:23.409Z,14.10
2019-05-19T18:50:52.090Z,14.10
2019-05-19T18:53:20.514Z,14.10
2019-05-19T18:55:49.011Z,14.00
2019-05-19T18:58:17.440Z,14.00
2019-05-19T19:00:45.921Z,13.90
2019-05-19T19:03:14.430Z,13.90
2019-05-19T19:05:42.977Z,13.90
2019-05-19T19:08:11.428Z,14.00
2019-05-19T19:10:39.873Z,13.80
2019-05-19T19:13:08.407Z,13.80
2019-05-19T19:15:36.837Z,13.80
2019-05-19T19:18:06.100Z,13.80
2019-05-19T19:20:35.251Z,13.70
2019-05-19T19:23:04.140Z,13.80
2019-05-19T19:25:32.592Z,13.70
2019-05-19T19:28:01.055Z,13.80
2019-05-19T19:30:29.474Z,13.60
2019-05-19T19:32:57.974Z,13.60
2019-05-19T19:35:26.460Z,13.60
2019-05-19T19:37:54.933Z,13.40
2019-05-19T19:40:28.484Z,13.40
2019-05-19T19:42:58.149Z,13.20
2019-05-19T19:45:26.594Z,13.30
2019-05-19T19:47:55.214Z,13.30
2019-05-19T19:50:23.798Z,13.20
2019-05-19T19:52:52.251Z,13.10
2019-05-19T19:55:20.670Z,13.10
2019-05-19T19:57:49.106Z,13.10
2019-05-19T20:00:23.799Z,13.10
2019-05-19T20:02:52.239Z,13.10
2019-05-19T20:05:20.679Z,12.90
2019-05-19T20:07:49.183Z,12.90
2019-05-19T20:10:19.424Z,12.80
2019-05-19T20:12:47.846Z,12.70
2019-05-19T20:15:16.393Z,12.60
2019-05-19T20:17:44.829Z,12.60
2019-05-19T20:20:13.512Z,12.60
2019-05-19T20:22:41.934Z,12.60
2019-05-19T20:25:10.628Z,12.50
2019-05-19T20:27:39.344Z,12.50
2019-05-19T20:30:08.019Z,12.60
2019-05-19T20:32:36.532Z,12.50
2019-05-19T20:35:05.734Z,12.50
2019-05-19T20:37:34.205Z,12.60
2019-05-19T20:40:02.814Z,12.60
2019-05-19T20:42:31.333Z,12.50
2019-05-19T20:44:59.770Z,12.50
2019-05-19T20:47:29.126Z,12.50
2019-05-19T20:49:57.579Z,12.50
2019-05-19T20:52:26.019Z,12.60
2019-05-19T20:54:54.459Z,12.60
2019-05-19T20:57:22.884Z,12.60
2019-05-19T20:59:51.389Z,12.50
2019-05-19T21:02:19.841Z,12.50
2019-05-19T21:04:48.309Z,12.40
2019-05-19T21:07:16.739Z,12.40
2019-05-19T21:09:46.724Z,12.40
2019-05-19T21:12:15.151Z,12.40
2019-05-19T21:14:43.579Z,12.30
2019-05-19T21:17:12.087Z,12.30
2019-05-19T21:19:40.525Z,12.30
2019-05-19T21:22:10.506Z,12.20
2019-05-19T21:24:38.963Z,12.20
2019-05-19T21:27:07.462Z,12.10
2019-05-19T21:29:35.907Z,12.10
2019-05-19T21:32:04.363Z,12.10
2019-05-19T21:34:34.531Z,12.00
2019-05-19T21:37:02.999Z,11.90
2019-05-19T21:39:31.694Z,11.90
2019-05-19T21:42:00.138Z,11.90
2019-05-19T21:44:28.571Z,11.90
2019-05-19T21:46:57.010Z,11.90
2019-05-19T21:49:25.458Z,11.90
2019-05-19T21:51:53.968Z,11.90
2019-05-19T21:54:23.934Z,11.80
2019-05-19T21:56:52.390Z,11.80
2019-05-19T21:59:20.828Z,11.80
2019-05-19T22:01:49.348Z,11.70
2019-05-19T22:04:17.771Z,11.70
2019-05-19T22:06:47.907Z,11.60
2019-05-19T22:09:16.351Z,11.60
2019-05-19T22:11:44.807Z,11.50
2019-05-19T22:14:13.251Z,11.40
2019-05-19T22:16:41.707Z,11.30
2019-05-19T22:19:10.195Z,11.20
2019-05-19T22:21:38.664Z,11.20
2019-05-19T22:24:07.179Z,11.20
2019-05-19T22:26:35.599Z,11.10
2019-05-19T22:29:04.190Z,11.00
2019-05-19T22:31:36.945Z,11.00
2019-05-19T22:34:02.883Z,11.00
2019-05-19T22:36:31.315Z,11.00
2019-05-19T22:38:59.758Z,11.00
2019-05-19T22:41:28.190Z,11.00
2019-05-19T22:43:58.438Z,11.00
2019-05-19T22:46:26.859Z,11.00
2019-05-19T22:48:55.325Z,11.00
2019-05-19T22:51:23.760Z,11.00
2019-05-19T22:53:52.208Z,11.00
2019-05-19T22:56:20.629Z,11.00
2019-05-19T22:58:49.084Z,11.00
2019-05-19T23:01:19.102Z,11.00
2019-05-19T23:03:47.632Z,10.90
2019-05-19T23:06:16.062Z,10.90
2019-05-19T23:08:44.518Z,10.90
2019-05-19T23:11:12.971Z,10.80
2019-05-19T23:13:42.948Z,10.80
2019-05-19T23:16:11.371Z,10.70
2019-05-19T23:18:39.813Z,10.70
2019-05-19T23:21:08.243Z,10.60
2019-05-19T23:23:36.779Z,10.60
2019-05-19T23:26:05.215Z,10.60
2019-05-19T23:28:33.651Z,10.60
2019-05-19T23:31:03.648Z,10.50
2019-05-19T23:33:32.083Z,10.50
2019-05-19T23:36:00.589Z,10.60
2019-05-19T23:38:29.015Z,10.60
2019-05-19T23:40:57.463Z,10.60
2019-05-19T23:43:26.137Z,10.70
2019-05-19T23:45:54.631Z,10.60
2019-05-19T23:48:23.050Z,10.60
2019-05-19T23:50:53.043Z,10.60
2019-05-19T23:53:21.467Z,10.50
2019-05-19T23:55:49.911Z,10.70
2019-05-19T23:58:18.418Z,10.90
